createdAt,value
2022-08-05T00:02:22.263Z,22.20
2022-08-05T00:04:55.364Z,23.60
2022-08-05T00:07:59.798Z,24.00
2022-08-05T00:10:10.741Z,24.10
2022-08-05T00:12:56.140Z,22.90
2022-08-05T00:15:57.587Z,22.90
2022-08-05T00:18:21.693Z,22.80
2022-08-05T00:20:50.165Z,22.80
2022-08-05T00:23:17.058Z,24.00
2022-08-05T00:25:45.599Z,21.70
2022-08-05T00:28:13.554Z,21.70
2022-08-05T00:30:41.140Z,22.00
2022-08-05T00:36:16.637Z,22.80
2022-08-05T00:38:45.748Z,21.20
2022-08-05T00:46:16.921Z,21.80
2022-08-05T00:49:04.464Z,22.40
2022-08-05T00:51:51.786Z,22.80
2022-08-05T00:56:51.480Z,23.00
2022-08-05T00:59:18.673Z,23.10
2022-08-05T01:01:48.880Z,21.50
2022-08-05T01:06:53.652Z,23.50
2022-08-05T01:11:52.312Z,23.80
2022-08-05T01:14:28.384Z,22.40
2022-08-05T01:17:05.799Z,22.40
2022-08-05T01:20:01.204Z,23.10
2022-08-05T01:22:46.930Z,22.70
2022-08-05T01:25:39.830Z,21.20
2022-08-05T01:28:26.797Z,21.40
2022-08-05T01:31:20.165Z,22.30
2022-08-05T01:33:59.426Z,22.50
2022-08-05T01:36:31.612Z,22.90
2022-08-05T01:39:01.297Z,22.30
2022-08-05T01:41:34.463Z,21.40
2022-08-05T01:44:02.328Z,22.80
2022-08-05T01:46:41.896Z,21.40
2022-08-05T01:49:22.915Z,22.00
2022-08-05T01:51:58.928Z,23.20
2022-08-05T01:54:48.410Z,22.90
2022-08-05T01:58:10.723Z,22.40
2022-08-05T02:00:11.739Z,21.00
2022-08-05T02:02:53.649Z,21.50
2022-08-05T02:05:28.592Z,21.60
2022-08-05T02:08:00.297Z,22.20
2022-08-05T02:10:34.825Z,21.80
2022-08-05T02:13:27.790Z,22.00
2022-08-05T02:16:10.468Z,23.20
2022-08-05T02:18:50.150Z,23.40
2022-08-05T02:21:19.704Z,21.70
2022-08-05T02:23:52.333Z,22.50
2022-08-05T02:26:30.776Z,20.80
2022-08-05T02:28:58.490Z,21.50
2022-08-05T02:31:28.611Z,22.00
2022-08-05T02:34:06.180Z,22.10
2022-08-05T02:36:41.360Z,21.90
2022-08-05T02:39:10.174Z,21.60
2022-08-05T02:41:58.066Z,21.80
2022-08-05T02:44:28.278Z,22.90
2022-08-05T02:47:00.149Z,21.50
2022-08-05T02:49:37.162Z,21.80
2022-08-05T02:52:08.824Z,22.60
2022-08-05T02:54:41.521Z,21.20
2022-08-05T02:58:09.339Z,21.80
2022-08-05T03:02:36.554Z,22.90
2022-08-05T03:05:04.882Z,23.10
2022-08-05T03:07:59.467Z,22.80
2022-08-05T03:12:53.937Z,21.40
2022-08-05T03:15:23.767Z,23.10
2022-08-05T03:17:54.209Z,23.10
2022-08-05T03:20:23.719Z,23.00
2022-08-05T03:22:51.417Z,21.90
2022-08-05T03:25:33.308Z,22.90
2022-08-05T03:28:08.693Z,22.50
2022-08-05T03:30:36.621Z,22.00
2022-08-05T03:33:05.784Z,22.80
2022-08-05T03:38:07.354Z,21.00
2022-08-05T03:40:34.425Z,22.80
2022-08-05T03:43:59.309Z,20.50
2022-08-05T03:48:29.858Z,21.50
2022-08-05T03:52:49.028Z,20.70
2022-08-05T03:55:49.774Z,21.30
2022-08-05T03:57:00.522Z,21.10
2022-08-05T03:59:47.093Z,20.40
2022-08-05T04:02:38.532Z,20.80
2022-08-05T04:05:13.092Z,21.40
2022-08-05T04:07:57.821Z,21.40
2022-08-05T04:10:27.666Z,21.60
2022-08-05T04:12:58.914Z,20.40
2022-08-05T04:15:28.007Z,20.40
2022-08-05T04:18:07.214Z,21.50
2022-08-05T04:23:02.401Z,20.50
2022-08-05T04:25:57.829Z,22.10
2022-08-05T04:33:13.466Z,22.00
2022-08-05T04:36:11.304Z,21.30
2022-08-05T04:38:39.787Z,20.60
2022-08-05T04:41:09.538Z,22.40
2022-08-05T04:43:38.040Z,21.00
2022-08-05T04:46:13.422Z,21.50
2022-08-05T04:48:54.790Z,21.60
2022-08-05T04:53:49.917Z,22.70
2022-08-05T04:59:22.130Z,22.60
2022-08-05T05:02:07.284Z,21.30
2022-08-05T05:07:09.583Z,22.40
2022-08-05T05:09:37.234Z,21.80
2022-08-05T05:12:06.335Z,22.60
2022-08-05T05:14:34.496Z,22.50
2022-08-05T05:17:03.711Z,21.40
2022-08-05T05:19:37.110Z,22.10
2022-08-05T05:22:23.097Z,22.50
2022-08-05T05:24:59.014Z,21.20
2022-08-05T05:27:45.819Z,21.60
2022-08-05T05:30:31.357Z,22.10
2022-08-05T05:33:03.880Z,21.50
2022-08-05T05:35:44.316Z,21.20
2022-08-05T05:38:12.914Z,21.50
2022-08-05T05:40:49.531Z,20.50
2022-08-05T05:48:41.808Z,22.30
2022-08-05T05:53:54.467Z,21.60
2022-08-05T05:56:31.933Z,22.20
2022-08-05T05:59:06.529Z,22.70
2022-08-05T06:01:39.588Z,22.40
2022-08-05T06:04:12.727Z,22.60
2022-08-05T06:06:46.697Z,22.60
2022-08-05T06:12:01.014Z,24.40
2022-08-05T06:14:31.657Z,22.30
2022-08-05T06:16:59.320Z,23.10
2022-08-05T06:19:34.547Z,25.00
2022-08-05T06:22:06.718Z,23.60
2022-08-05T06:24:34.946Z,22.70
2022-08-05T06:29:46.670Z,23.10
2022-08-05T06:32:26.386Z,23.50
2022-08-05T06:34:58.169Z,24.50
2022-08-05T06:37:55.622Z,24.80
2022-08-05T06:42:52.731Z,23.70
2022-08-05T06:45:43.955Z,25.10
2022-08-05T06:53:28.052Z,25.00
2022-08-05T06:58:34.798Z,24.60
2022-08-05T07:01:03.444Z,27.40
2022-08-05T07:03:32.446Z,26.60
2022-08-05T07:06:05.907Z,25.10
2022-08-05T07:08:42.108Z,25.30
2022-08-05T07:11:15.421Z,25.90
2022-08-05T07:14:02.047Z,25.50
2022-08-05T07:18:00.372Z,25.10
2022-08-05T07:22:28.943Z,25.80
2022-08-05T07:24:59.111Z,26.20
2022-08-05T07:27:27.404Z,25.20
2022-08-05T07:30:27.528Z,26.10
2022-08-05T07:43:46.840Z,27.60
2022-08-05T07:49:01.549Z,28.40
2022-08-05T07:51:36.699Z,27.80
2022-08-05T07:54:05.975Z,29.10
2022-08-05T07:56:59.952Z,27.50
2022-08-05T07:59:23.313Z,27.10
2022-08-05T08:02:07.541Z,29.40
2022-08-05T08:04:43.161Z,27.90
2022-08-05T08:07:12.216Z,28.10
2022-08-05T08:12:19.932Z,27.20
2022-08-05T08:14:53.165Z,29.50
2022-08-05T08:17:19.845Z,28.10
2022-08-05T08:20:21.166Z,28.40
2022-08-05T08:25:16.260Z,29.30
2022-08-05T08:27:47.903Z,29.40
2022-08-05T08:30:32.687Z,29.60
2022-08-05T08:33:13.749Z,29.80
2022-08-05T08:35:53.764Z,29.10
2022-08-05T08:38:36.083Z,28.50
2022-08-05T08:41:09.888Z,29.60
2022-08-05T08:45:19.194Z,29.30
2022-08-05T08:46:29.272Z,31.50
2022-08-05T08:49:08.084Z,30.60
2022-08-05T08:52:03.486Z,29.30
2022-08-05T08:54:34.042Z,29.10
2022-08-05T08:57:11.458Z,29.00
2022-08-05T08:59:38.763Z,29.10
2022-08-05T09:02:09.036Z,28.80
2022-08-05T09:04:58.360Z,28.90
2022-08-05T09:07:28.496Z,29.70
2022-08-05T09:09:56.228Z,29.10
2022-08-05T09:15:04.072Z,30.10
2022-08-05T09:17:40.411Z,30.40
2022-08-05T09:20:09.390Z,31.00
2022-08-05T09:23:19.108Z,29.30
2022-08-05T09:26:03.017Z,29.40
2022-08-05T09:28:33.405Z,29.60
2022-08-05T09:32:39.322Z,30.00
2022-08-05T09:34:14.004Z,29.40
2022-08-05T09:36:55.615Z,29.30
2022-08-05T09:39:27.709Z,28.90
2022-08-05T09:42:08.830Z,29.60
2022-08-05T09:44:41.810Z,29.70
2022-08-05T09:47:16.891Z,31.40
2022-08-05T09:50:01.094Z,30.20
2022-08-05T09:52:44.961Z,28.60
2022-08-05T09:55:56.262Z,29.20
2022-08-05T09:58:00.319Z,29.50
2022-08-05T10:00:29.673Z,28.30
2022-08-05T10:02:58.339Z,27.70
2022-08-05T10:05:28.279Z,28.10
2022-08-05T10:08:35.509Z,28.60
2022-08-05T10:10:54.626Z,27.40
2022-08-05T10:13:47.792Z,27.40
2022-08-05T10:16:37.921Z,28.10
2022-08-05T10:19:13.628Z,27.90
2022-08-05T10:21:41.068Z,30.40
2022-08-05T10:24:13.488Z,30.10
2022-08-05T10:26:52.218Z,30.30
2022-08-05T10:30:05.786Z,29.70
2022-08-05T10:32:52.807Z,30.00
2022-08-05T10:35:00.787Z,29.90
2022-08-05T10:37:40.407Z,29.10
2022-08-05T10:40:46.886Z,30.30
2022-08-05T10:43:37.453Z,30.50
2022-08-05T10:46:07.926Z,30.90
2022-08-05T10:48:52.572Z,31.00
2022-08-05T10:51:29.341Z,32.50
2022-08-05T10:54:05.985Z,30.20
2022-08-05T10:56:56.507Z,30.70
2022-08-05T11:00:03.155Z,30.20
2022-08-05T11:05:10.241Z,31.00
2022-08-05T11:08:01.378Z,29.50
2022-08-05T11:10:33.383Z,29.80
2022-08-05T11:13:01.173Z,31.80
2022-08-05T11:16:01.332Z,29.40
2022-08-05T11:18:34.033Z,30.40
2022-08-05T11:21:06.146Z,29.20
2022-08-05T11:24:05.287Z,29.10
2022-08-05T11:26:43.333Z,31.00
2022-08-05T11:29:42.725Z,29.00
2022-08-05T11:32:29.042Z,29.60
2022-08-05T11:34:57.464Z,29.70
2022-08-05T11:38:26.339Z,29.10
2022-08-05T11:41:03.452Z,30.10
2022-08-05T11:44:06.033Z,29.40
2022-08-05T11:46:57.943Z,29.90
2022-08-05T11:49:34.021Z,28.60
2022-08-05T11:52:01.927Z,29.10
2022-08-05T11:54:40.659Z,29.80
2022-08-05T11:57:25.454Z,28.00
2022-08-05T11:59:54.296Z,28.00
2022-08-05T12:02:31.999Z,28.30
2022-08-05T12:05:08.144Z,29.80
2022-08-05T12:08:07.527Z,29.90
2022-08-05T12:10:43.839Z,30.10
2022-08-05T12:13:16.719Z,28.70
2022-08-05T12:15:49.798Z,28.30
2022-08-05T12:18:32.865Z,29.70
2022-08-05T12:21:10.883Z,29.30
2022-08-05T12:23:43.191Z,28.50
2022-08-05T12:28:38.837Z,29.40
2022-08-05T12:31:05.867Z,29.90
2022-08-05T12:33:37.036Z,29.40
2022-08-05T12:36:09.505Z,30.50
2022-08-05T12:38:41.106Z,29.20
2022-08-05T12:41:13.368Z,28.60
2022-08-05T12:43:55.484Z,28.70
2022-08-05T12:46:29.729Z,28.50
2022-08-05T12:49:13.086Z,29.20
2022-08-05T12:52:14.235Z,29.40
2022-08-05T12:54:40.498Z,28.90
2022-08-05T12:57:09.314Z,26.80
2022-08-05T13:01:57.677Z,29.30
2022-08-05T13:02:41.426Z,28.70
2022-08-05T13:05:12.567Z,30.60
2022-08-05T13:08:00.408Z,28.30
2022-08-05T13:10:28.814Z,28.40
2022-08-05T13:12:58.272Z,30.60
2022-08-05T13:15:42.236Z,30.10
2022-08-05T13:18:19.597Z,30.00
2022-08-05T13:20:49.342Z,28.30
2022-08-05T13:23:18.237Z,28.20
2022-08-05T13:28:26.095Z,28.40
2022-08-05T13:30:53.478Z,28.40
2022-08-05T13:34:22.573Z,30.20
2022-08-05T13:36:09.231Z,28.40
2022-08-05T13:38:38.519Z,28.10
2022-08-05T13:41:09.033Z,28.30
2022-08-05T13:43:45.792Z,30.00
2022-08-05T13:47:01.758Z,29.50
2022-08-05T13:49:11.575Z,27.60
2022-08-05T13:51:41.644Z,28.20
2022-08-05T13:54:15.261Z,27.40
2022-08-05T13:56:45.476Z,27.80
2022-08-05T13:59:21.047Z,29.60
2022-08-05T14:01:57.848Z,27.40
2022-08-05T14:04:51.386Z,28.70
2022-08-05T14:07:59.919Z,28.20
2022-08-05T14:10:18.651Z,27.40
2022-08-05T14:16:08.114Z,28.50
2022-08-05T14:18:14.907Z,27.10
2022-08-05T14:20:47.189Z,28.00
2022-08-05T14:23:19.160Z,26.80
2022-08-05T14:25:54.261Z,27.80
2022-08-05T14:28:26.256Z,28.80
2022-08-05T14:30:54.620Z,27.80
2022-08-05T14:33:22.772Z,28.80
2022-08-05T14:38:32.426Z,27.40
2022-08-05T14:41:07.714Z,26.20
2022-08-05T14:43:59.519Z,28.50
2022-08-05T14:46:28.276Z,27.10
2022-08-05T14:48:57.360Z,25.90
2022-08-05T14:54:28.598Z,27.40
2022-08-05T14:56:46.609Z,26.60
2022-08-05T14:59:14.706Z,26.00
2022-08-05T15:01:48.431Z,25.70
2022-08-05T15:04:22.193Z,26.80
2022-08-05T15:06:54.521Z,26.30
2022-08-05T15:09:52.343Z,26.00
2022-08-05T15:12:11.524Z,26.80
2022-08-05T15:14:49.516Z,27.10
2022-08-05T15:17:45.833Z,26.30
2022-08-05T15:20:18.666Z,26.30
2022-08-05T15:22:54.442Z,27.30
2022-08-05T15:25:41.047Z,27.30
2022-08-05T15:30:42.315Z,27.50
2022-08-05T15:33:10.758Z,27.00
2022-08-05T15:38:34.104Z,26.30
2022-08-05T15:41:22.289Z,26.50
2022-08-05T15:48:53.012Z,26.30
2022-08-05T15:52:12.440Z,25.10
2022-08-05T15:56:43.521Z,24.90
2022-08-05T16:01:52.944Z,24.60
2022-08-05T16:04:25.431Z,24.40
2022-08-05T16:06:55.995Z,25.40
2022-08-05T16:11:53.739Z,25.80
2022-08-05T16:14:21.668Z,23.90
2022-08-05T16:16:49.365Z,23.90
2022-08-05T16:22:04.329Z,26.00
2022-08-05T16:24:40.975Z,24.60
2022-08-05T16:27:09.263Z,24.40
2022-08-05T16:29:38.446Z,23.30
2022-08-05T16:32:09.999Z,24.30
2022-08-05T16:40:04.522Z,24.40
2022-08-05T16:42:35.415Z,25.50
2022-08-05T16:46:02.670Z,23.60
2022-08-05T16:50:25.429Z,24.90
2022-08-05T16:55:23.161Z,22.80
2022-08-05T16:57:53.323Z,23.00
2022-08-05T17:00:34.860Z,24.70
2022-08-05T17:03:09.158Z,23.20
2022-08-05T17:08:36.516Z,22.50
2022-08-05T17:11:12.670Z,23.20
2022-08-05T17:13:44.759Z,23.80
2022-08-05T17:16:29.805Z,22.20
2022-08-05T17:24:28.066Z,24.20
2022-08-05T17:29:33.212Z,24.50
2022-08-05T17:32:17.063Z,22.00
2022-08-05T17:34:49.103Z,21.80
2022-08-05T17:37:40.362Z,22.60
2022-08-05T17:40:12.075Z,22.50
2022-08-05T17:45:22.577Z,22.70
2022-08-05T17:47:56.021Z,21.30
2022-08-05T17:50:28.327Z,22.30
2022-08-05T17:52:59.163Z,22.30
2022-08-05T17:55:34.526Z,21.40
2022-08-05T17:58:09.927Z,22.10
2022-08-05T18:00:40.781Z,22.20
2022-08-05T18:03:28.044Z,22.20
2022-08-05T18:06:04.365Z,23.30
2022-08-05T18:08:33.515Z,22.10
2022-08-05T18:13:36.613Z,23.30
2022-08-05T18:16:13.335Z,21.80
2022-08-05T18:18:41.199Z,23.20
2022-08-05T18:23:47.259Z,20.60
2022-08-05T18:28:46.545Z,20.80
2022-08-05T18:36:19.454Z,20.90
2022-08-05T18:38:46.993Z,20.60
2022-08-05T18:41:54.127Z,20.40
2022-08-05T18:44:06.287Z,21.40
2022-08-05T18:46:34.534Z,22.60
2022-08-05T18:54:45.775Z,19.90
2022-08-05T19:00:01.798Z,20.90
2022-08-05T19:02:32.341Z,19.90
2022-08-05T19:06:05.652Z,20.60
2022-08-05T19:12:57.459Z,20.30
2022-08-05T19:20:53.704Z,19.60
2022-08-05T19:24:06.903Z,20.30
2022-08-05T19:28:41.997Z,20.00
2022-08-05T19:31:13.522Z,19.30
2022-08-05T19:33:48.434Z,19.80
2022-08-05T19:36:23.434Z,21.10
2022-08-05T19:38:50.144Z,18.50
2022-08-05T19:46:39.322Z,20.80
2022-08-05T19:49:07.143Z,20.80
2022-08-05T19:52:09.080Z,19.40
2022-08-05T19:54:31.443Z,19.20
2022-08-05T19:57:06.495Z,19.40
2022-08-05T20:00:00.823Z,19.90
2022-08-05T20:02:27.014Z,19.20
2022-08-05T20:04:58.355Z,18.00
2022-08-05T20:07:46.304Z,19.20
2022-08-05T20:10:17.241Z,18.10
2022-08-05T20:12:47.646Z,20.30
2022-08-05T20:15:23.188Z,18.50
2022-08-05T20:18:10.950Z,20.40
2022-08-05T20:23:39.585Z,19.20
2022-08-05T20:26:16.082Z,20.00
2022-08-05T20:28:48.603Z,20.20
2022-08-05T20:33:44.486Z,19.60
2022-08-05T20:38:53.366Z,20.20
2022-08-05T20:41:24.090Z,20.10
2022-08-05T20:43:59.099Z,20.10
2022-08-05T20:48:57.390Z,19.10
2022-08-05T20:51:24.265Z,19.50
2022-08-05T20:53:56.913Z,20.00
2022-08-05T20:56:31.035Z,17.50
2022-08-05T20:59:19.222Z,17.50
2022-08-05T21:01:51.650Z,19.70
2022-08-05T21:04:19.377Z,17.60
2022-08-05T21:06:46.555Z,17.40
2022-08-05T21:09:15.043Z,17.60
2022-08-05T21:12:09.615Z,17.70
2022-08-05T21:14:39.557Z,18.20
2022-08-05T21:17:06.538Z,17.30
2022-08-05T21:19:46.939Z,18.40
2022-08-05T21:22:18.673Z,19.60
2022-08-05T21:24:51.957Z,19.40
2022-08-05T21:27:20.634Z,18.30
2022-08-05T21:32:27.465Z,18.20
2022-08-05T21:35:16.882Z,17.30
2022-08-05T21:37:52.690Z,17.40
2022-08-05T21:40:20.783Z,17.70
2022-08-05T21:42:47.822Z,19.10
2022-08-05T21:45:24.589Z,19.30
2022-08-05T21:47:56.671Z,18.10
2022-08-05T21:58:07.241Z,19.50
2022-08-05T22:00:37.479Z,16.90
2022-08-05T22:03:09.974Z,17.10
2022-08-05T22:05:48.430Z,17.00
2022-08-05T22:10:50.035Z,17.00
2022-08-05T22:14:20.310Z,17.20
2022-08-05T22:16:20.408Z,18.50
2022-08-05T22:18:51.010Z,18.80
2022-08-05T22:21:18.900Z,18.30
2022-08-05T22:24:09.214Z,18.80
2022-08-05T22:26:58.653Z,17.80
2022-08-05T22:29:30.874Z,16.50
2022-08-05T22:32:03.328Z,18.50
2022-08-05T22:34:31.416Z,18.60
2022-08-05T22:36:59.700Z,16.50
2022-08-05T22:39:33.094Z,18.70
2022-08-05T22:42:10.231Z,18.60
2022-08-05T22:44:42.696Z,17.40
2022-08-05T22:47:30.127Z,16.30
2022-08-05T22:50:19.176Z,17.60
2022-08-05T22:52:46.290Z,17.20
2022-08-05T22:55:19.346Z,17.60
2022-08-05T22:57:49.134Z,17.00
2022-08-05T23:00:18.466Z,17.30
2022-08-05T23:02:49.335Z,17.00
2022-08-05T23:05:16.848Z,16.70
2022-08-05T23:07:44.814Z,17.90
2022-08-05T23:10:13.408Z,17.40
2022-08-05T23:15:11.834Z,17.70
2022-08-05T23:18:01.700Z,16.30
2022-08-05T23:20:26.846Z,18.30
2022-08-05T23:22:56.245Z,17.90
2022-08-05T23:25:52.713Z,17.10
2022-08-05T23:28:10.402Z,18.10
2022-08-05T23:30:39.605Z,16.70
2022-08-05T23:33:16.279Z,16.00
2022-08-05T23:35:56.165Z,17.20
2022-08-05T23:38:25.965Z,18.20
2022-08-05T23:40:53.480Z,18.20
2022-08-05T23:43:25.667Z,17.10
2022-08-05T23:46:19.855Z,17.00
2022-08-05T23:49:00.390Z,17.10
2022-08-05T23:51:53.733Z,17.80
2022-08-05T23:54:25.485Z,15.80
2022-08-05T23:56:54.585Z,16.90
2022-08-05T23:59:22.303Z,18.40
